sensor_id;sensor_type;location;lat;lon;timestamp;P1;durP1;ratioP1;P2;durP2;ratioP2
35971;SDS011;22052;0.000;0.000;2022-09-21T00:00:25;6.10;;;1.10;;
35971;SDS011;22052;0.000;0.000;2022-09-21T00:02:59;3.10;;;0.90;;
35971;SDS011;22052;0.000;0.000;2022-09-21T00:05:28;5.80;;;0.88;;
35971;SDS011;22052;0.000;0.000;2022-09-21T00:08:06;2.03;;;0.60;;
35971;SDS011;22052;0.000;0.000;2022-09-21T00:10:39;5.07;;;0.90;;
35971;SDS011;22052;0.000;0.000;2022-09-21T00:13:09;5.07;;;0.95;;
35971;SDS011;22052;0.000;0.000;2022-09-21T00:15:45;7.10;;;1.10;;
35971;SDS011;22052;0.000;0.000;2022-09-21T00:18:27;3.65;;;0.70;;
35971;SDS011;22052;0.000;0.000;2022-09-21T00:20:56;4.85;;;0.95;;
35971;SDS011;22052;0.000;0.000;2022-09-21T00:23:25;2.85;;;0.90;;
35971;SDS011;22052;0.000;0.000;2022-09-21T00:26:02;5.88;;;1.42;;
35971;SDS011;22052;0.000;0.000;2022-09-21T00:28:32;3.08;;;0.80;;
35971;SDS011;22052;0.000;0.000;2022-09-21T00:31:01;5.00;;;0.90;;
35971;SDS011;22052;0.000;0.000;2022-09-21T00:33:29;4.22;;;1.00;;
35971;SDS011;22052;0.000;0.000;2022-09-21T00:38:56;4.55;;;0.82;;
35971;SDS011;22052;0.000;0.000;2022-09-21T00:41:36;3.10;;;1.00;;
35971;SDS011;22052;0.000;0.000;2022-09-21T00:44:24;3.78;;;0.60;;
35971;SDS011;22052;0.000;0.000;2022-09-21T00:46:53;6.78;;;1.02;;
35971;SDS011;22052;0.000;0.000;2022-09-21T00:49:22;4.18;;;1.00;;
35971;SDS011;22052;0.000;0.000;2022-09-21T00:51:53;3.40;;;0.77;;
35971;SDS011;22052;0.000;0.000;2022-09-21T00:54:28;2.78;;;0.90;;
35971;SDS011;22052;0.000;0.000;2022-09-21T00:57:03;4.28;;;0.70;;
35971;SDS011;22052;0.000;0.000;2022-09-21T00:59:42;4.00;;;0.90;;
35971;SDS011;22052;0.000;0.000;2022-09-21T01:02:13;3.13;;;0.80;;
35971;SDS011;22052;0.000;0.000;2022-09-21T01:04:42;2.95;;;0.75;;
35971;SDS011;22052;0.000;0.000;2022-09-21T01:07:17;2.92;;;0.82;;
35971;SDS011;22052;0.000;0.000;2022-09-21T01:09:47;5.68;;;0.98;;
35971;SDS011;22052;0.000;0.000;2022-09-21T01:14:49;3.35;;;0.93;;
35971;SDS011;22052;0.000;0.000;2022-09-21T01:30:49;1.50;;;0.60;;
35971;SDS011;22052;0.000;0.000;2022-09-21T01:35:48;3.75;;;0.73;;
35971;SDS011;22052;0.000;0.000;2022-09-21T01:38:27;3.08;;;0.82;;
35971;SDS011;22052;0.000;0.000;2022-09-21T01:41:03;2.42;;;0.50;;
35971;SDS011;22052;0.000;0.000;2022-09-21T01:43:36;2.78;;;0.73;;
35971;SDS011;22052;0.000;0.000;2022-09-21T01:46:09;3.05;;;0.82;;
35971;SDS011;22052;0.000;0.000;2022-09-21T01:48:40;1.63;;;0.50;;
35971;SDS011;22052;0.000;0.000;2022-09-21T01:51:12;2.45;;;0.65;;
35971;SDS011;22052;0.000;0.000;2022-09-21T01:53:48;2.33;;;0.90;;
35971;SDS011;22052;0.000;0.000;2022-09-21T01:57:04;2.13;;;0.50;;
35971;SDS011;22052;0.000;0.000;2022-09-21T01:59:16;2.15;;;0.50;;
35971;SDS011;22052;0.000;0.000;2022-09-21T02:01:55;2.15;;;0.57;;
35971;SDS011;22052;0.000;0.000;2022-09-21T02:04:23;2.60;;;0.52;;
35971;SDS011;22052;0.000;0.000;2022-09-21T02:06:52;2.80;;;0.50;;
35971;SDS011;22052;0.000;0.000;2022-09-21T02:09:21;3.83;;;0.93;;
35971;SDS011;22052;0.000;0.000;2022-09-21T02:11:50;2.50;;;0.57;;
35971;SDS011;22052;0.000;0.000;2022-09-21T02:14:19;1.88;;;0.50;;
35971;SDS011;22052;0.000;0.000;2022-09-21T02:19:30;2.42;;;0.63;;
35971;SDS011;22052;0.000;0.000;2022-09-21T02:22:10;2.65;;;0.80;;
35971;SDS011;22052;0.000;0.000;2022-09-21T02:24:46;1.70;;;0.60;;
35971;SDS011;22052;0.000;0.000;2022-09-21T02:30:06;2.20;;;0.50;;
35971;SDS011;22052;0.000;0.000;2022-09-21T02:33:36;2.30;;;0.50;;
35971;SDS011;22052;0.000;0.000;2022-09-21T02:44:05;3.97;;;0.60;;
35971;SDS011;22052;0.000;0.000;2022-09-21T02:46:53;2.67;;;0.75;;
35971;SDS011;22052;0.000;0.000;2022-09-21T02:49:22;2.90;;;0.63;;
35971;SDS011;22052;0.000;0.000;2022-09-21T02:51:53;3.08;;;0.60;;
35971;SDS011;22052;0.000;0.000;2022-09-21T02:54:25;2.13;;;0.40;;
35971;SDS011;22052;0.000;0.000;2022-09-21T02:56:57;1.50;;;0.60;;
35971;SDS011;22052;0.000;0.000;2022-09-21T02:59:26;0.98;;;0.50;;
35971;SDS011;22052;0.000;0.000;2022-09-21T03:01:53;1.67;;;0.40;;
35971;SDS011;22052;0.000;0.000;2022-09-21T03:04:21;2.10;;;0.50;;
35971;SDS011;22052;0.000;0.000;2022-09-21T03:06:52;3.20;;;0.55;;
35971;SDS011;22052;0.000;0.000;2022-09-21T03:09:21;2.67;;;0.57;;
35971;SDS011;22052;0.000;0.000;2022-09-21T03:11:52;1.42;;;0.60;;
35971;SDS011;22052;0.000;0.000;2022-09-21T03:14:21;0.85;;;0.40;;
35971;SDS011;22052;0.000;0.000;2022-09-21T03:16:49;0.85;;;0.50;;
35971;SDS011;22052;0.000;0.000;2022-09-21T03:19:16;2.55;;;0.60;;
35971;SDS011;22052;0.000;0.000;2022-09-21T03:21:45;1.15;;;0.47;;
35971;SDS011;22052;0.000;0.000;2022-09-21T03:24:14;0.75;;;0.30;;
35971;SDS011;22052;0.000;0.000;2022-09-21T03:27:01;1.83;;;0.57;;
35971;SDS011;22052;0.000;0.000;2022-09-21T03:29:30;2.05;;;0.50;;
35971;SDS011;22052;0.000;0.000;2022-09-21T03:31:59;1.45;;;0.40;;
35971;SDS011;22052;0.000;0.000;2022-09-21T03:34:28;2.92;;;0.60;;
35971;SDS011;22052;0.000;0.000;2022-09-21T03:37:01;1.13;;;0.50;;
35971;SDS011;22052;0.000;0.000;2022-09-21T03:39:32;0.90;;;0.30;;
35971;SDS011;22052;0.000;0.000;2022-09-21T03:42:01;2.17;;;0.60;;
35971;SDS011;22052;0.000;0.000;2022-09-21T03:44:30;1.40;;;0.47;;
35971;SDS011;22052;0.000;0.000;2022-09-21T03:46:59;1.50;;;0.52;;
35971;SDS011;22052;0.000;0.000;2022-09-21T03:49:32;0.95;;;0.40;;
35971;SDS011;22052;0.000;0.000;2022-09-21T03:52:01;2.00;;;0.60;;
35971;SDS011;22052;0.000;0.000;2022-09-21T03:54:30;1.33;;;0.50;;
35971;SDS011;22052;0.000;0.000;2022-09-21T03:56:58;2.50;;;0.60;;
35971;SDS011;22052;0.000;0.000;2022-09-21T03:59:35;1.05;;;0.40;;
35971;SDS011;22052;0.000;0.000;2022-09-21T04:02:09;1.30;;;0.50;;
35971;SDS011;22052;0.000;0.000;2022-09-21T04:04:39;0.50;;;0.30;;
35971;SDS011;22052;0.000;0.000;2022-09-21T04:07:07;1.35;;;0.40;;
35971;SDS011;22052;0.000;0.000;2022-09-21T04:09:41;1.38;;;0.40;;
35971;SDS011;22052;0.000;0.000;2022-09-21T04:12:09;1.98;;;0.47;;
35971;SDS011;22052;0.000;0.000;2022-09-21T04:14:40;1.65;;;0.50;;
35971;SDS011;22052;0.000;0.000;2022-09-21T04:17:12;1.70;;;0.47;;
35971;SDS011;22052;0.000;0.000;2022-09-21T04:19:43;1.10;;;0.30;;
35971;SDS011;22052;0.000;0.000;2022-09-21T04:22:13;0.60;;;0.30;;
35971;SDS011;22052;0.000;0.000;2022-09-21T04:24:49;1.75;;;0.52;;
35971;SDS011;22052;0.000;0.000;2022-09-21T04:27:22;2.80;;;0.50;;
35971;SDS011;22052;0.000;0.000;2022-09-21T04:29:53;1.35;;;0.50;;
35971;SDS011;22052;0.000;0.000;2022-09-21T04:32:22;2.22;;;0.40;;
35971;SDS011;22052;0.000;0.000;2022-09-21T04:34:50;2.28;;;0.50;;
35971;SDS011;22052;0.000;0.000;2022-09-21T04:37:19;4.55;;;0.57;;
35971;SDS011;22052;0.000;0.000;2022-09-21T04:39:48;1.73;;;0.50;;
35971;SDS011;22052;0.000;0.000;2022-09-21T04:42:18;3.03;;;0.68;;
35971;SDS011;22052;0.000;0.000;2022-09-21T04:44:51;3.47;;;0.47;;
35971;SDS011;22052;0.000;0.000;2022-09-21T04:47:20;1.80;;;0.52;;
35971;SDS011;22052;0.000;0.000;2022-09-21T04:49:51;4.22;;;0.60;;
35971;SDS011;22052;0.000;0.000;2022-09-21T04:52:22;5.25;;;0.60;;
35971;SDS011;22052;0.000;0.000;2022-09-21T04:54:57;4.47;;;0.60;;
35971;SDS011;22052;0.000;0.000;2022-09-21T04:57:29;2.60;;;0.52;;
35971;SDS011;22052;0.000;0.000;2022-09-21T05:00:03;1.98;;;0.57;;
35971;SDS011;22052;0.000;0.000;2022-09-21T05:02:39;5.65;;;0.73;;
35971;SDS011;22052;0.000;0.000;2022-09-21T05:06:09;2.45;;;0.75;;
35971;SDS011;22052;0.000;0.000;2022-09-21T05:09:14;4.38;;;0.70;;
35971;SDS011;22052;0.000;0.000;2022-09-21T05:12:10;5.65;;;0.80;;
35971;SDS011;22052;0.000;0.000;2022-09-21T05:14:48;3.17;;;0.80;;
35971;SDS011;22052;0.000;0.000;2022-09-21T05:17:33;4.82;;;0.70;;
35971;SDS011;22052;0.000;0.000;2022-09-21T05:20:17;4.00;;;0.70;;
35971;SDS011;22052;0.000;0.000;2022-09-21T05:22:59;6.45;;;1.13;;
35971;SDS011;22052;0.000;0.000;2022-09-21T05:25:42;7.90;;;0.68;;
35971;SDS011;22052;0.000;0.000;2022-09-21T05:34:29;5.22;;;0.70;;
35971;SDS011;22052;0.000;0.000;2022-09-21T05:40:27;6.15;;;0.80;;
35971;SDS011;22052;0.000;0.000;2022-09-21T05:43:09;3.05;;;0.70;;
35971;SDS011;22052;0.000;0.000;2022-09-21T05:45:56;4.03;;;0.80;;
35971;SDS011;22052;0.000;0.000;2022-09-21T05:48:47;2.75;;;0.70;;
35971;SDS011;22052;0.000;0.000;2022-09-21T06:04:18;3.65;;;0.70;;
35971;SDS011;22052;0.000;0.000;2022-09-21T06:07:16;2.88;;;0.77;;
35971;SDS011;22052;0.000;0.000;2022-09-21T06:13:05;5.20;;;0.90;;
35971;SDS011;22052;0.000;0.000;2022-09-21T06:15:44;5.30;;;1.15;;
35971;SDS011;22052;0.000;0.000;2022-09-21T06:21:37;6.22;;;1.05;;
35971;SDS011;22052;0.000;0.000;2022-09-21T06:25:06;8.23;;;0.80;;
35971;SDS011;22052;0.000;0.000;2022-09-21T06:28:07;3.72;;;0.85;;
35971;SDS011;22052;0.000;0.000;2022-09-21T06:30:39;6.10;;;1.10;;
35971;SDS011;22052;0.000;0.000;2022-09-21T06:33:39;4.90;;;0.90;;
35971;SDS011;22052;0.000;0.000;2022-09-21T06:36:17;11.65;;;1.23;;
35971;SDS011;22052;0.000;0.000;2022-09-21T06:39:01;3.85;;;0.45;;
35971;SDS011;22052;0.000;0.000;2022-09-21T06:41:43;4.13;;;0.93;;
35971;SDS011;22052;0.000;0.000;2022-09-21T06:44:38;7.18;;;0.73;;
35971;SDS011;22052;0.000;0.000;2022-09-21T06:47:31;5.82;;;0.82;;
35971;SDS011;22052;0.000;0.000;2022-09-21T06:50:01;4.65;;;0.77;;
35971;SDS011;22052;0.000;0.000;2022-09-21T06:52:37;5.00;;;1.00;;
35971;SDS011;22052;0.000;0.000;2022-09-21T06:55:12;4.55;;;0.85;;
35971;SDS011;22052;0.000;0.000;2022-09-21T06:57:49;3.72;;;0.95;;
35971;SDS011;22052;0.000;0.000;2022-09-21T07:00:39;4.90;;;0.88;;
35971;SDS011;22052;0.000;0.000;2022-09-21T07:03:21;4.13;;;0.80;;
35971;SDS011;22052;0.000;0.000;2022-09-21T07:05:58;7.70;;;0.70;;
35971;SDS011;22052;0.000;0.000;2022-09-21T07:08:35;7.38;;;1.00;;
35971;SDS011;22052;0.000;0.000;2022-09-21T07:14:43;4.70;;;0.90;;
35971;SDS011;22052;0.000;0.000;2022-09-21T07:17:20;4.10;;;0.80;;
35971;SDS011;22052;0.000;0.000;2022-09-21T07:19:56;5.93;;;0.82;;
35971;SDS011;22052;0.000;0.000;2022-09-21T07:22:28;5.57;;;0.95;;
35971;SDS011;22052;0.000;0.000;2022-09-21T07:25:07;6.97;;;0.70;;
35971;SDS011;22052;0.000;0.000;2022-09-21T07:28:04;9.15;;;1.00;;
35971;SDS011;22052;0.000;0.000;2022-09-21T07:31:27;6.57;;;1.05;;
35971;SDS011;22052;0.000;0.000;2022-09-21T07:34:18;5.57;;;0.90;;
35971;SDS011;22052;0.000;0.000;2022-09-21T07:37:20;6.55;;;1.00;;
35971;SDS011;22052;0.000;0.000;2022-09-21T07:43:15;6.13;;;0.93;;
35971;SDS011;22052;0.000;0.000;2022-09-21T07:49:28;9.40;;;1.20;;
35971;SDS011;22052;0.000;0.000;2022-09-21T07:55:01;8.48;;;1.10;;
35971;SDS011;22052;0.000;0.000;2022-09-21T07:57:59;5.68;;;1.00;;
35971;SDS011;22052;0.000;0.000;2022-09-21T08:00:48;5.95;;;1.10;;
35971;SDS011;22052;0.000;0.000;2022-09-21T08:03:28;8.85;;;1.10;;
35971;SDS011;22052;0.000;0.000;2022-09-21T08:06:10;7.65;;;1.30;;
35971;SDS011;22052;0.000;0.000;2022-09-21T08:08:50;6.68;;;1.27;;
35971;SDS011;22052;0.000;0.000;2022-09-21T08:12:00;8.30;;;1.13;;
35971;SDS011;22052;0.000;0.000;2022-09-21T08:14:31;6.63;;;1.40;;
35971;SDS011;22052;0.000;0.000;2022-09-21T08:17:23;6.70;;;1.73;;
35971;SDS011;22052;0.000;0.000;2022-09-21T08:23:12;12.05;;;1.67;;
35971;SDS011;22052;0.000;0.000;2022-09-21T08:28:38;9.73;;;1.40;;
35971;SDS011;22052;0.000;0.000;2022-09-21T08:34:46;8.88;;;1.48;;
35971;SDS011;22052;0.000;0.000;2022-09-21T08:37:39;9.95;;;1.10;;
35971;SDS011;22052;0.000;0.000;2022-09-21T08:40:24;6.88;;;1.08;;
35971;SDS011;22052;0.000;0.000;2022-09-21T08:43:16;11.18;;;1.52;;
35971;SDS011;22052;0.000;0.000;2022-09-21T08:46:03;10.77;;;1.92;;
35971;SDS011;22052;0.000;0.000;2022-09-21T08:52:05;7.10;;;1.50;;
35971;SDS011;22052;0.000;0.000;2022-09-21T08:54:46;12.63;;;1.25;;
35971;SDS011;22052;0.000;0.000;2022-09-21T08:57:37;6.95;;;1.50;;
35971;SDS011;22052;0.000;0.000;2022-09-21T09:03:19;7.20;;;1.65;;
35971;SDS011;22052;0.000;0.000;2022-09-21T09:06:13;7.63;;;1.63;;
35971;SDS011;22052;0.000;0.000;2022-09-21T09:20:31;9.80;;;1.55;;
35971;SDS011;22052;0.000;0.000;2022-09-21T09:23:31;10.88;;;1.70;;
35971;SDS011;22052;0.000;0.000;2022-09-21T09:26:24;12.15;;;1.45;;
35971;SDS011;22052;0.000;0.000;2022-09-21T09:32:27;9.45;;;1.40;;
35971;SDS011;22052;0.000;0.000;2022-09-21T09:35:29;7.30;;;1.40;;
35971;SDS011;22052;0.000;0.000;2022-09-21T09:38:33;10.95;;;1.80;;
35971;SDS011;22052;0.000;0.000;2022-09-21T09:41:28;11.55;;;1.50;;
35971;SDS011;22052;0.000;0.000;2022-09-21T09:52:14;9.00;;;1.77;;
35971;SDS011;22052;0.000;0.000;2022-09-21T09:54:48;13.00;;;2.00;;
35971;SDS011;22052;0.000;0.000;2022-09-21T09:57:23;6.55;;;1.35;;
35971;SDS011;22052;0.000;0.000;2022-09-21T10:02:57;10.05;;;2.00;;
35971;SDS011;22052;0.000;0.000;2022-09-21T10:08:03;10.80;;;1.35;;
35971;SDS011;22052;0.000;0.000;2022-09-21T10:10:33;9.50;;;1.52;;
35971;SDS011;22052;0.000;0.000;2022-09-21T10:15:37;10.43;;;1.70;;
35971;SDS011;22052;0.000;0.000;2022-09-21T10:18:16;7.95;;;1.50;;
35971;SDS011;22052;0.000;0.000;2022-09-21T10:21:24;7.53;;;1.15;;
35971;SDS011;22052;0.000;0.000;2022-09-21T10:24:14;7.43;;;1.30;;
35971;SDS011;22052;0.000;0.000;2022-09-21T10:30:30;7.03;;;1.35;;
35971;SDS011;22052;0.000;0.000;2022-09-21T10:33:19;9.60;;;1.25;;
35971;SDS011;22052;0.000;0.000;2022-09-21T10:35:57;9.23;;;1.35;;
35971;SDS011;22052;0.000;0.000;2022-09-21T10:41:37;9.85;;;1.45;;
35971;SDS011;22052;0.000;0.000;2022-09-21T10:44:13;5.95;;;1.60;;
35971;SDS011;22052;0.000;0.000;2022-09-21T10:49:41;13.68;;;1.88;;
35971;SDS011;22052;0.000;0.000;2022-09-21T10:52:32;11.45;;;1.30;;
35971;SDS011;22052;0.000;0.000;2022-09-21T10:55:18;15.68;;;1.50;;
35971;SDS011;22052;0.000;0.000;2022-09-21T10:57:51;10.05;;;1.50;;
35971;SDS011;22052;0.000;0.000;2022-09-21T11:00:27;7.07;;;1.38;;
35971;SDS011;22052;0.000;0.000;2022-09-21T11:03:02;13.50;;;1.92;;
35971;SDS011;22052;0.000;0.000;2022-09-21T11:05:34;8.77;;;1.33;;
35971;SDS011;22052;0.000;0.000;2022-09-21T11:13:57;10.95;;;1.42;;
35971;SDS011;22052;0.000;0.000;2022-09-21T11:22:11;15.67;;;2.13;;
35971;SDS011;22052;0.000;0.000;2022-09-21T11:27:44;7.32;;;1.42;;
35971;SDS011;22052;0.000;0.000;2022-09-21T11:30:31;10.15;;;1.77;;
35971;SDS011;22052;0.000;0.000;2022-09-21T11:38:51;8.68;;;1.50;;
35971;SDS011;22052;0.000;0.000;2022-09-21T11:41:25;9.93;;;1.45;;
35971;SDS011;22052;0.000;0.000;2022-09-21T11:44:20;10.63;;;1.55;;
35971;SDS011;22052;0.000;0.000;2022-09-21T11:55:42;8.65;;;1.52;;
35971;SDS011;22052;0.000;0.000;2022-09-21T12:00:53;8.55;;;1.35;;
35971;SDS011;22052;0.000;0.000;2022-09-21T12:06:52;13.15;;;1.98;;
35971;SDS011;22052;0.000;0.000;2022-09-21T12:12:59;21.23;;;1.95;;
35971;SDS011;22052;0.000;0.000;2022-09-21T12:28:23;6.78;;;1.30;;
35971;SDS011;22052;0.000;0.000;2022-09-21T12:31:14;11.95;;;1.75;;
35971;SDS011;22052;0.000;0.000;2022-09-21T12:37:11;14.20;;;2.30;;
35971;SDS011;22052;0.000;0.000;2022-09-21T12:39:54;12.48;;;2.10;;
35971;SDS011;22052;0.000;0.000;2022-09-21T12:43:00;13.45;;;2.20;;
35971;SDS011;22052;0.000;0.000;2022-09-21T12:48:58;11.32;;;1.85;;
35971;SDS011;22052;0.000;0.000;2022-09-21T12:54:22;13.90;;;1.83;;
35971;SDS011;22052;0.000;0.000;2022-09-21T13:02:33;10.20;;;1.88;;
35971;SDS011;22052;0.000;0.000;2022-09-21T13:05:15;13.95;;;2.05;;
35971;SDS011;22052;0.000;0.000;2022-09-21T13:10:59;12.75;;;1.75;;
35971;SDS011;22052;0.000;0.000;2022-09-21T13:16:01;14.05;;;2.20;;
35971;SDS011;22052;0.000;0.000;2022-09-21T13:31:27;14.80;;;2.03;;
35971;SDS011;22052;0.000;0.000;2022-09-21T13:34:24;9.95;;;1.92;;
35971;SDS011;22052;0.000;0.000;2022-09-21T13:40:28;18.75;;;3.05;;
35971;SDS011;22052;0.000;0.000;2022-09-21T13:42:42;11.05;;;2.17;;
35971;SDS011;22052;0.000;0.000;2022-09-21T13:48:11;18.70;;;2.28;;
35971;SDS011;22052;0.000;0.000;2022-09-21T13:51:15;13.63;;;2.50;;
35971;SDS011;22052;0.000;0.000;2022-09-21T13:54:10;16.60;;;2.47;;
35971;SDS011;22052;0.000;0.000;2022-09-21T13:56:57;18.58;;;2.47;;
35971;SDS011;22052;0.000;0.000;2022-09-21T13:59:28;22.23;;;2.03;;
35971;SDS011;22052;0.000;0.000;2022-09-21T14:02:00;13.32;;;2.15;;
35971;SDS011;22052;0.000;0.000;2022-09-21T14:04:36;12.98;;;1.80;;
35971;SDS011;22052;0.000;0.000;2022-09-21T14:07:05;12.35;;;2.00;;
35971;SDS011;22052;0.000;0.000;2022-09-21T14:09:42;11.57;;;1.80;;
35971;SDS011;22052;0.000;0.000;2022-09-21T14:12:22;13.32;;;2.03;;
35971;SDS011;22052;0.000;0.000;2022-09-21T14:15:29;10.40;;;1.75;;
35971;SDS011;22052;0.000;0.000;2022-09-21T14:21:11;14.93;;;2.38;;
35971;SDS011;22052;0.000;0.000;2022-09-21T14:27:04;10.80;;;1.40;;
35971;SDS011;22052;0.000;0.000;2022-09-21T14:29:51;9.43;;;1.60;;
35971;SDS011;22052;0.000;0.000;2022-09-21T14:32:51;9.02;;;1.63;;
35971;SDS011;22052;0.000;0.000;2022-09-21T14:35:23;8.82;;;1.67;;
35971;SDS011;22052;0.000;0.000;2022-09-21T14:38:05;11.35;;;1.60;;
35971;SDS011;22052;0.000;0.000;2022-09-21T14:40:48;12.63;;;1.83;;
35971;SDS011;22052;0.000;0.000;2022-09-21T14:43:19;11.65;;;1.95;;
35971;SDS011;22052;0.000;0.000;2022-09-21T15:00:17;14.65;;;2.25;;
35971;SDS011;22052;0.000;0.000;2022-09-21T15:03:39;13.63;;;1.65;;
35971;SDS011;22052;0.000;0.000;2022-09-21T15:05:37;10.27;;;1.90;;
35971;SDS011;22052;0.000;0.000;2022-09-21T15:14:20;11.63;;;1.88;;
35971;SDS011;22052;0.000;0.000;2022-09-21T15:16:49;8.43;;;1.40;;
35971;SDS011;22052;0.000;0.000;2022-09-21T15:21:50;11.95;;;1.70;;
35971;SDS011;22052;0.000;0.000;2022-09-21T15:24:32;10.50;;;2.00;;
35971;SDS011;22052;0.000;0.000;2022-09-21T15:27:06;9.57;;;1.85;;
35971;SDS011;22052;0.000;0.000;2022-09-21T15:29:36;7.00;;;1.60;;
35971;SDS011;22052;0.000;0.000;2022-09-21T15:32:05;14.10;;;1.98;;
35971;SDS011;22052;0.000;0.000;2022-09-21T15:34:36;11.10;;;2.08;;
35971;SDS011;22052;0.000;0.000;2022-09-21T15:37:26;9.05;;;1.48;;
35971;SDS011;22052;0.000;0.000;2022-09-21T15:40:30;7.70;;;1.65;;
35971;SDS011;22052;0.000;0.000;2022-09-21T15:48:40;12.35;;;1.75;;
35971;SDS011;22052;0.000;0.000;2022-09-21T15:51:23;12.55;;;2.08;;
35971;SDS011;22052;0.000;0.000;2022-09-21T15:54:08;7.18;;;1.85;;
35971;SDS011;22052;0.000;0.000;2022-09-21T15:56:49;10.00;;;1.70;;
35971;SDS011;22052;0.000;0.000;2022-09-21T15:59:29;12.30;;;1.70;;
35971;SDS011;22052;0.000;0.000;2022-09-21T16:02:18;10.48;;;1.48;;
35971;SDS011;22052;0.000;0.000;2022-09-21T16:05:11;5.95;;;1.33;;
35971;SDS011;22052;0.000;0.000;2022-09-21T16:08:02;12.88;;;1.52;;
35971;SDS011;22052;0.000;0.000;2022-09-21T16:10:41;8.88;;;1.83;;
35971;SDS011;22052;0.000;0.000;2022-09-21T16:13:26;9.88;;;1.60;;
35971;SDS011;22052;0.000;0.000;2022-09-21T16:16:21;9.18;;;2.25;;
35971;SDS011;22052;0.000;0.000;2022-09-21T16:19:08;13.60;;;1.85;;
35971;SDS011;22052;0.000;0.000;2022-09-21T16:22:07;5.22;;;1.70;;
35971;SDS011;22052;0.000;0.000;2022-09-21T16:24:44;11.73;;;1.75;;
35971;SDS011;22052;0.000;0.000;2022-09-21T16:27:16;12.68;;;1.70;;
35971;SDS011;22052;0.000;0.000;2022-09-21T16:29:48;10.38;;;1.90;;
35971;SDS011;22052;0.000;0.000;2022-09-21T16:32:33;10.65;;;2.03;;
35971;SDS011;22052;0.000;0.000;2022-09-21T16:35:26;8.93;;;1.45;;
35971;SDS011;22052;0.000;0.000;2022-09-21T16:37:57;11.57;;;1.85;;
35971;SDS011;22052;0.000;0.000;2022-09-21T16:40:28;9.70;;;1.58;;
35971;SDS011;22052;0.000;0.000;2022-09-21T16:42:58;9.05;;;1.65;;
35971;SDS011;22052;0.000;0.000;2022-09-21T16:45:29;6.35;;;1.73;;
35971;SDS011;22052;0.000;0.000;2022-09-21T16:47:59;11.70;;;1.73;;
35971;SDS011;22052;0.000;0.000;2022-09-21T16:50:33;6.47;;;1.25;;
35971;SDS011;22052;0.000;0.000;2022-09-21T16:53:13;13.80;;;1.55;;
35971;SDS011;22052;0.000;0.000;2022-09-21T16:55:57;9.40;;;1.48;;
35971;SDS011;22052;0.000;0.000;2022-09-21T16:58:31;12.60;;;2.17;;
35971;SDS011;22052;0.000;0.000;2022-09-21T17:01:00;13.97;;;2.07;;
35971;SDS011;22052;0.000;0.000;2022-09-21T17:03:30;15.40;;;2.00;;
35971;SDS011;22052;0.000;0.000;2022-09-21T17:06:00;16.95;;;2.10;;
35971;SDS011;22052;0.000;0.000;2022-09-21T17:08:27;17.60;;;2.17;;
35971;SDS011;22052;0.000;0.000;2022-09-21T17:10:57;12.32;;;2.20;;
35971;SDS011;22052;0.000;0.000;2022-09-21T17:13:27;10.23;;;1.83;;
35971;SDS011;22052;0.000;0.000;2022-09-21T17:16:01;11.20;;;2.00;;
35971;SDS011;22052;0.000;0.000;2022-09-21T17:18:30;10.82;;;2.10;;
35971;SDS011;22052;0.000;0.000;2022-09-21T17:21:00;13.27;;;1.88;;
35971;SDS011;22052;0.000;0.000;2022-09-21T17:23:32;14.25;;;2.08;;
35971;SDS011;22052;0.000;0.000;2022-09-21T17:26:20;8.50;;;1.45;;
35971;SDS011;22052;0.000;0.000;2022-09-21T17:28:48;10.60;;;1.83;;
35971;SDS011;22052;0.000;0.000;2022-09-21T17:31:20;8.13;;;1.63;;
35971;SDS011;22052;0.000;0.000;2022-09-21T17:33:53;14.15;;;2.05;;
35971;SDS011;22052;0.000;0.000;2022-09-21T17:36:22;8.13;;;1.40;;
35971;SDS011;22052;0.000;0.000;2022-09-21T17:38:52;9.90;;;1.60;;
35971;SDS011;22052;0.000;0.000;2022-09-21T17:41:28;11.13;;;1.55;;
35971;SDS011;22052;0.000;0.000;2022-09-21T17:44:22;12.85;;;1.63;;
35971;SDS011;22052;0.000;0.000;2022-09-21T17:47:16;11.63;;;2.00;;
35971;SDS011;22052;0.000;0.000;2022-09-21T17:49:44;10.05;;;2.00;;
35971;SDS011;22052;0.000;0.000;2022-09-21T17:52:20;6.47;;;1.67;;
35971;SDS011;22052;0.000;0.000;2022-09-21T17:55:12;12.15;;;2.08;;
35971;SDS011;22052;0.000;0.000;2022-09-21T17:57:50;10.35;;;1.63;;
35971;SDS011;22052;0.000;0.000;2022-09-21T18:00:31;6.28;;;1.58;;
35971;SDS011;22052;0.000;0.000;2022-09-21T18:03:13;9.05;;;1.65;;
35971;SDS011;22052;0.000;0.000;2022-09-21T18:05:50;10.75;;;1.48;;
35971;SDS011;22052;0.000;0.000;2022-09-21T18:08:26;8.73;;;1.80;;
35971;SDS011;22052;0.000;0.000;2022-09-21T18:10:56;10.25;;;1.85;;
35971;SDS011;22052;0.000;0.000;2022-09-21T18:16:17;10.40;;;1.75;;
35971;SDS011;22052;0.000;0.000;2022-09-21T18:18:50;8.45;;;1.73;;
35971;SDS011;22052;0.000;0.000;2022-09-21T18:21:22;12.23;;;1.55;;
35971;SDS011;22052;0.000;0.000;2022-09-21T18:26:42;11.75;;;2.00;;
35971;SDS011;22052;0.000;0.000;2022-09-21T18:31:57;6.90;;;1.20;;
35971;SDS011;22052;0.000;0.000;2022-09-21T18:40:02;12.00;;;2.00;;
35971;SDS011;22052;0.000;0.000;2022-09-21T18:42:45;10.68;;;1.80;;
35971;SDS011;22052;0.000;0.000;2022-09-21T18:45:25;8.13;;;1.73;;
35971;SDS011;22052;0.000;0.000;2022-09-21T18:48:04;10.88;;;1.85;;
35971;SDS011;22052;0.000;0.000;2022-09-21T18:55:56;7.07;;;1.45;;
35971;SDS011;22052;0.000;0.000;2022-09-21T18:58:25;10.10;;;1.38;;
35971;SDS011;22052;0.000;0.000;2022-09-21T19:00:56;10.05;;;2.10;;
35971;SDS011;22052;0.000;0.000;2022-09-21T19:03:24;13.50;;;2.72;;
35971;SDS011;22052;0.000;0.000;2022-09-21T19:08:50;11.98;;;1.60;;
35971;SDS011;22052;0.000;0.000;2022-09-21T19:22:12;7.93;;;1.60;;
35971;SDS011;22052;0.000;0.000;2022-09-21T19:24:48;9.93;;;1.63;;
35971;SDS011;22052;0.000;0.000;2022-09-21T19:30:08;13.57;;;1.90;;
35971;SDS011;22052;0.000;0.000;2022-09-21T19:32:49;11.57;;;1.75;;
35971;SDS011;22052;0.000;0.000;2022-09-21T19:35:24;10.18;;;1.73;;
35971;SDS011;22052;0.000;0.000;2022-09-21T19:53:45;11.05;;;1.48;;
35971;SDS011;22052;0.000;0.000;2022-09-21T19:56:33;8.13;;;1.50;;
35971;SDS011;22052;0.000;0.000;2022-09-21T19:59:20;10.52;;;1.70;;
35971;SDS011;22052;0.000;0.000;2022-09-21T20:02:05;11.30;;;1.70;;
35971;SDS011;22052;0.000;0.000;2022-09-21T20:07:15;10.93;;;1.73;;
35971;SDS011;22052;0.000;0.000;2022-09-21T20:09:43;8.52;;;1.45;;
35971;SDS011;22052;0.000;0.000;2022-09-21T20:17:03;9.43;;;1.70;;
35971;SDS011;22052;0.000;0.000;2022-09-21T20:20:20;12.35;;;1.80;;
35971;SDS011;22052;0.000;0.000;2022-09-21T20:22:39;9.10;;;1.80;;
35971;SDS011;22052;0.000;0.000;2022-09-21T20:25:10;12.00;;;1.60;;
35971;SDS011;22052;0.000;0.000;2022-09-21T20:27:39;10.02;;;1.95;;
35971;SDS011;22052;0.000;0.000;2022-09-21T20:30:07;13.07;;;2.08;;
35971;SDS011;22052;0.000;0.000;2022-09-21T20:32:34;9.18;;;1.90;;
35971;SDS011;22052;0.000;0.000;2022-09-21T20:35:01;6.10;;;1.42;;
35971;SDS011;22052;0.000;0.000;2022-09-21T20:37:27;12.82;;;1.98;;
35971;SDS011;22052;0.000;0.000;2022-09-21T20:39:54;10.70;;;1.83;;
35971;SDS011;22052;0.000;0.000;2022-09-21T20:42:21;12.48;;;1.92;;
35971;SDS011;22052;0.000;0.000;2022-09-21T20:44:51;7.63;;;1.60;;
35971;SDS011;22052;0.000;0.000;2022-09-21T20:47:17;8.75;;;2.05;;
35971;SDS011;22052;0.000;0.000;2022-09-21T20:49:47;12.68;;;2.25;;
35971;SDS011;22052;0.000;0.000;2022-09-21T20:52:14;10.38;;;1.60;;
35971;SDS011;22052;0.000;0.000;2022-09-21T20:54:44;13.00;;;1.60;;
35971;SDS011;22052;0.000;0.000;2022-09-21T20:57:10;14.45;;;2.13;;
35971;SDS011;22052;0.000;0.000;2022-09-21T20:59:36;9.43;;;2.15;;
35971;SDS011;22052;0.000;0.000;2022-09-21T21:02:03;12.00;;;1.60;;
35971;SDS011;22052;0.000;0.000;2022-09-21T21:04:32;7.65;;;1.90;;
35971;SDS011;22052;0.000;0.000;2022-09-21T21:06:58;11.18;;;1.77;;
35971;SDS011;22052;0.000;0.000;2022-09-21T21:09:24;14.60;;;2.05;;
35971;SDS011;22052;0.000;0.000;2022-09-21T21:11:52;8.50;;;2.15;;
35971;SDS011;22052;0.000;0.000;2022-09-21T21:14:18;11.50;;;1.70;;
35971;SDS011;22052;0.000;0.000;2022-09-21T21:16:44;11.50;;;1.95;;